Time;durP1;ratioP1;P1;durP2;ratioP2;P2;SDS_P1;SDS_P2;PMS_P1;PMS_P2;Temp;Humidity;BMP_temperature;BMP_pressure;BME280_temperature;BME280_humidity;BME280_pressure;Samples;Min_cycle;Max_cycle;Signal;HPM_P1;HPM_P2
2024/04/11 00:01:28;;;;;;;6.43;5.15;;;;;;;14.70;93.02;101335.00;5074298;28;20059;-76
2024/04/11 00:04:33;;;;;;;6.50;5.18;;;;;;;14.88;92.37;101328.81;5062219;28;20411;-77
2024/04/11 00:07:38;;;;;;;6.65;5.40;;;;;;;14.93;91.47;101328.38;5074357;28;20047;-76
2024/04/11 00:10:43;;;;;;;8.30;5.35;;;;;;;14.78;92.31;101325.22;5074308;28;20059;-76
2024/04/11 00:13:47;;;;;;;7.15;5.25;;;;;;;14.90;91.85;101332.22;5074329;28;20063;-78
2024/04/11 00:16:52;;;;;;;8.02;5.82;;;;;;;14.87;92.14;101331.63;5074210;28;20076;-77
2024/04/11 00:19:57;;;;;;;7.72;5.28;;;;;;;14.93;92.12;101337.34;5074114;28;20059;-76
2024/04/11 00:23:01;;;;;;;8.75;5.80;;;;;;;14.90;92.55;101329.50;5061085;28;20056;-77
2024/04/11 00:26:06;;;;;;;8.40;5.90;;;;;;;15.22;91.08;101325.72;5074155;28;20051;-78
2024/04/11 00:29:10;;;;;;;8.15;5.93;;;;;;;15.10;91.04;101325.00;5073808;28;20521;-77
2024/04/11 00:32:16;;;;;;;8.02;6.00;;;;;;;15.05;91.09;101332.69;5061317;28;20047;-76
2024/04/11 00:35:23;;;;;;;6.65;5.85;;;;;;;14.98;91.15;101334.22;5073609;28;20052;-76
2024/04/11 00:38:28;;;;;;;9.32;5.60;;;;;;;15.05;90.84;101339.91;5073552;28;20056;-77
2024/04/11 00:41:32;;;;;;;7.68;5.40;;;;;;;15.11;90.51;101337.50;5073508;28;20067;-75
2024/04/11 00:44:37;;;;;;;6.28;5.07;;;;;;;15.09;90.73;101331.38;5073472;28;20333;-76
2024/04/11 00:47:43;;;;;;;6.57;5.22;;;;;;;15.07;91.50;101332.53;5073119;28;20079;-76
2024/04/11 00:50:50;;;;;;;7.78;5.53;;;;;;;14.95;92.11;101320.97;5061092;28;20492;-78
2024/04/11 00:53:58;;;;;;;6.95;5.60;;;;;;;15.08;91.18;101324.28;5073429;28;20059;-77
2024/04/11 00:57:07;;;;;;;8.55;5.88;;;;;;;15.12;90.82;101317.59;5060829;28;20384;-76
2024/04/11 01:00:12;;;;;;;7.50;5.65;;;;;;;14.90;91.71;101316.00;5071878;28;20052;-77
2024/04/11 01:03:16;;;;;;;7.60;5.55;;;;;;;14.94;91.54;101330.06;5072428;28;20403;-77
2024/04/11 01:06:20;;;;;;;7.03;5.47;;;;;;;15.05;91.01;101332.69;5061071;28;20043;-78
2024/04/11 01:09:24;;;;;;;6.72;5.10;;;;;;;14.93;91.57;101328.38;5073232;28;20047;-77
2024/04/11 01:12:29;;;;;;;8.95;5.78;;;;;;;14.95;91.43;101327.25;5073122;28;20414;-75
2024/04/11 01:15:34;;;;;;;7.00;5.32;;;;;;;14.95;91.45;101329.94;5073122;28;20387;-76
2024/04/11 01:18:42;;;;;;;8.45;5.90;;;;;;;14.91;91.79;101327.66;5073024;28;20410;-76
2024/04/11 01:21:46;;;;;;;9.77;5.78;;;;;;;15.03;91.04;101329.25;5072937;28;20067;-76
2024/04/11 01:24:52;;;;;;;6.15;5.05;;;;;;;15.05;90.67;101332.69;5060722;28;20051;-77
2024/04/11 01:27:57;;;;;;;6.65;5.53;;;;;;;14.96;91.13;101326.25;5073074;28;20052;-77
2024/04/11 01:31:02;;;;;;;7.18;5.57;;;;;;;14.94;91.59;101328.22;5073075;28;20056;-77
2024/04/11 01:34:06;;;;;;;7.03;5.10;;;;;;;14.82;91.89;101329.34;5072988;28;20079;-77
2024/04/11 01:37:11;;;;;;;7.07;5.97;;;;;;;14.76;91.80;101329.06;5073027;28;20067;-77
2024/04/11 01:40:18;;;;;;;8.48;6.22;;;;;;;14.72;91.87;101317.66;5072902;28;20055;-77
2024/04/11 01:43:22;;;;;;;7.32;5.13;;;;;;;14.68;91.86;101315.34;5075946;28;20051;-77
2024/04/11 01:46:26;;;;;;;9.02;6.00;;;;;;;14.66;91.62;101326.31;5064904;28;20379;-77
2024/04/11 01:49:31;;;;;;;6.85;5.50;;;;;;;14.57;92.12;101332.53;5077145;28;20052;-75
2024/04/11 01:52:35;;;;;;;7.60;5.95;;;;;;;14.39;92.94;101336.88;5076512;28;20363;-76
2024/04/11 01:55:44;;;;;;;11.48;7.22;;;;;;;14.41;93.25;101334.03;5076687;28;20051;-76
2024/04/11 01:58:48;;;;;;;7.63;5.68;;;;;;;14.45;93.01;101317.41;5076219;28;20056;-76
2024/04/11 02:01:53;;;;;;;9.88;6.65;;;;;;;14.37;93.48;101333.44;5052893;28;20055;-76
2024/04/11 02:04:58;;;;;;;10.93;7.47;;;;;;;14.44;93.33;101323.81;5076556;28;20048;-76
2024/04/11 02:08:03;;;;;;;9.35;7.32;;;;;;;14.32;93.78;101335.69;5076494;28;20388;-76
2024/04/11 02:11:07;;;;;;;7.43;6.35;;;;;;;14.25;93.75;101335.34;5053001;28;20071;-76
2024/04/11 02:14:12;;;;;;;7.55;6.72;;;;;;;14.20;93.86;101334.00;5065943;28;20056;-76
2024/04/11 02:17:16;;;;;;;8.93;6.97;;;;;;;14.39;93.48;101347.69;5044110;28;20060;-76
2024/04/11 02:20:21;;;;;;;10.30;7.40;;;;;;;14.46;92.40;101343.44;5056186;28;20052;-75
2024/04/11 02:23:28;;;;;;;9.50;8.18;;;;;;;14.18;93.77;101352.19;5056010;28;20056;-76
2024/04/11 02:26:36;;;;;;;9.80;7.82;;;;;;;14.43;93.09;101342.84;5014610;28;20065;-77
2024/04/11 02:29:40;;;;;;;8.60;7.43;;;;;;;14.53;92.25;101333.81;5014020;28;20049;-76
2024/04/11 02:32:45;;;;;;;8.93;7.85;;;;;;;14.47;92.77;101334.31;5014556;28;20092;-76
2024/04/11 02:35:49;;;;;;;10.70;8.10;;;;;;;14.47;92.68;101342.44;5014236;28;20137;-76
2024/04/11 02:38:53;;;;;;;9.10;8.05;;;;;;;14.53;92.41;101349.16;5014088;28;20049;-77
2024/04/11 02:41:59;;;;;;;9.40;8.23;;;;;;;14.55;92.03;101348.03;5002860;28;20141;-75
2024/04/11 02:45:07;;;;;;;14.15;8.88;;;;;;;14.56;91.81;101360.56;5013496;28;20052;-76
2024/04/11 02:47:58;;;;;;;8.82;7.93;;;;;;;14.69;91.43;101355.75;5013402;28;20042;-77
2024/04/11 02:51:04;;;;;;;9.55;8.27;;;;;;;14.56;92.13;101365.97;5013853;28;20445;-77
2024/04/11 02:54:10;;;;;;;12.35;9.05;;;;;;;14.58;92.09;101374.78;5013700;28;20064;-76
2024/04/11 02:57:14;;;;;;;12.82;8.68;;;;;;;14.55;92.32;101375.03;5038585;28;20037;-77
2024/04/11 03:00:19;;;;;;;10.30;9.15;;;;;;;14.43;93.48;101370.72;5054796;28;20064;-77
2024/04/11 03:03:23;;;;;;;11.15;10.05;;;;;;;14.43;93.36;101378.81;5055278;28;20052;-77
2024/04/11 03:06:28;;;;;;;11.15;9.90;;;;;;;14.44;93.65;101385.94;5055361;28;20037;-77
2024/04/11 03:09:35;;;;;;;10.40;9.13;;;;;;;14.46;93.40;101385.81;5055344;28;20045;-77
2024/04/11 03:12:40;;;;;;;11.35;10.15;;;;;;;14.46;93.60;101386.66;5055273;28;20459;-78
2024/04/11 03:15:45;;;;;;;11.68;10.15;;;;;;;14.55;93.42;101391.25;5055074;28;20053;-77
2024/04/11 03:18:52;;;;;;;12.18;10.20;;;;;;;14.65;93.05;101391.28;5042557;28;20074;-77
2024/04/11 03:21:57;;;;;;;14.98;10.95;;;;;;;14.60;93.25;101389.00;5054950;28;20414;-77
2024/04/11 03:25:04;;;;;;;13.52;9.98;;;;;;;14.64;93.32;101395.00;5055033;28;20053;-77
2024/04/11 03:28:08;;;;;;;11.88;10.68;;;;;;;14.76;92.32;101399.31;5055149;28;20052;-76
2024/04/11 03:31:17;;;;;;;11.82;10.57;;;;;;;14.63;93.06;101398.69;5054867;28;20053;-76
2024/04/11 03:34:23;;;;;;;11.07;9.82;;;;;;;14.82;92.50;101407.72;5042695;28;20049;-76
2024/04/11 03:37:28;;;;;;;14.25;10.75;;;;;;;14.73;92.43;101403.16;5042822;28;20048;-77
2024/04/11 03:40:32;;;;;;;12.25;10.50;;;;;;;14.63;92.47;101413.06;5054834;28;20476;-75
2024/04/11 03:43:40;;;;;;;11.88;10.50;;;;;;;14.52;93.30;101406.88;5054585;28;20472;-75
2024/04/11 03:46:45;;;;;;;12.23;10.65;;;;;;;14.57;93.50;101416.28;5054562;28;20049;-75
2024/04/11 03:49:52;;;;;;;12.07;10.85;;;;;;;14.75;92.89;101413.81;5054508;28;20049;-77
2024/04/11 03:52:57;;;;;;;12.23;10.40;;;;;;;14.80;92.17;101423.25;5054548;28;20064;-77
2024/04/11 03:56:07;;;;;;;12.50;9.60;;;;;;;14.92;91.94;101419.44;5054157;28;20041;-76
2024/04/11 03:59:12;;;;;;;11.32;9.82;;;;;;;14.85;91.75;101426.38;5053959;28;20052;-77
2024/04/11 04:02:16;;;;;;;11.68;10.48;;;;;;;14.76;92.24;101424.47;5054325;28;20048;-76
2024/04/11 04:05:20;;;;;;;14.52;9.93;;;;;;;14.58;93.20;101426.13;5053281;28;20361;-78
2024/04/11 04:08:26;;;;;;;10.70;9.60;;;;;;;14.45;93.60;101427.31;5054219;28;20525;-77
2024/04/11 04:11:31;;;;;;;11.40;9.52;;;;;;;14.44;93.41;101429.16;5053793;28;20044;-76
2024/04/11 04:14:35;;;;;;;11.05;9.80;;;;;;;14.54;92.94;101435.47;5054092;28;20404;-75
2024/04/11 04:17:40;;;;;;;10.60;9.35;;;;;;;14.62;92.77;101435.66;5053884;28;20040;-77
2024/04/11 04:20:45;;;;;;;12.05;10.65;;;;;;;14.41;93.73;101437.53;5054022;28;20051;-78
2024/04/11 04:23:50;;;;;;;19.95;9.93;;;;;;;14.39;93.81;101439.53;5053867;28;20044;-75
2024/04/11 04:26:54;;;;;;;12.25;9.73;;;;;;;14.47;93.18;101439.69;5054099;28;20112;-78
2024/04/11 04:29:59;;;;;;;10.35;9.27;;;;;;;14.62;93.21;101438.34;5053658;28;20048;-76
2024/04/11 04:33:04;;;;;;;10.68;9.32;;;;;;;14.67;92.90;101444.22;5053541;28;20128;-76
2024/04/11 04:36:11;;;;;;;9.45;8.32;;;;;;;14.65;92.85;101442.63;5053731;28;20071;-76
2024/04/11 04:39:16;;;;;;;14.20;8.60;;;;;;;14.60;93.17;101447.59;5041486;28;20052;-76
2024/04/11 04:42:23;;;;;;;10.50;8.85;;;;;;;14.62;93.30;101451.00;5053402;28;20055;-75
2024/04/11 04:45:28;;;;;;;9.40;8.23;;;;;;;14.61;93.88;101457.41;5053467;28;20056;-74
2024/04/11 04:48:33;;;;;;;9.88;8.15;;;;;;;14.59;93.81;101462.94;5053447;28;20060;-74
2024/04/11 04:51:38;;;;;;;8.70;7.80;;;;;;;14.69;93.12;101453.03;5053374;28;20357;-74
2024/04/11 04:54:42;;;;;;;8.90;7.85;;;;;;;14.87;92.68;101464.09;5040888;28;20059;-74
2024/04/11 04:57:48;;;;;;;9.98;7.93;;;;;;;14.95;92.54;101470.53;5054006;28;20047;-73
2024/04/11 05:00:53;;;;;;;12.35;7.90;;;;;;;15.04;92.07;101479.69;5071974;28;20502;-75
2024/04/11 05:03:58;;;;;;;8.80;7.07;;;;;;;14.97;92.15;101475.81;5061134;28;20048;-71
2024/04/11 05:07:03;;;;;;;8.15;6.22;;;;;;;15.23;91.40;101482.47;5073320;28;20047;-71
2024/04/11 05:10:08;;;;;;;8.05;6.40;;;;;;;15.37;90.76;101475.81;5073039;28;20047;-76
2024/04/11 05:13:15;;;;;;;7.93;6.68;;;;;;;15.57;89.60;101480.31;5072805;28;20067;-74
2024/04/11 05:16:19;;;;;;;8.10;6.43;;;;;;;15.95;89.05;101493.91;5060317;28;20043;-74
2024/04/11 05:19:25;;;;;;;6.75;5.85;;;;;;;16.73;85.71;101490.16;5060672;28;20363;-74
2024/04/11 05:22:31;;;;;;;7.30;5.00;;;;;;;17.50;81.98;101491.53;5060636;28;20059;-74
2024/04/11 05:25:36;;;;;;;6.88;4.55;;;;;;;18.06;77.44;101493.22;5072692;28;20048;-74
2024/04/11 05:28:44;;;;;;;6.38;4.30;;;;;;;18.36;74.90;101495.53;5072855;28;20055;-74
2024/04/11 05:31:50;;;;;;;7.20;3.53;;;;;;;18.68;72.65;101500.41;5060437;28;20059;-73
2024/04/11 05:34:55;;;;;;;7.25;3.83;;;;;;;19.26;70.54;101500.56;5060377;28;20052;-76
2024/04/11 05:38:00;;;;;;;5.03;3.25;;;;;;;19.84;68.60;101503.38;5072665;28;20047;-74
2024/04/11 05:41:05;;;;;;;5.63;3.28;;;;;;;19.39;69.11;101507.31;5072899;28;20068;-75
2024/04/11 05:44:10;;;;;;;6.38;3.00;;;;;;;18.91;71.26;101506.19;5060347;28;20115;-76
2024/04/11 05:47:15;;;;;;;4.78;2.72;;;;;;;18.68;72.30;101514.00;5060635;28;20169;-75
2024/04/11 05:50:20;;;;;;;5.72;2.70;;;;;;;18.34;72.86;101518.44;5072701;28;20060;-75
2024/04/11 05:53:26;;;;;;;8.73;3.90;;;;;;;18.29;73.13;101527.09;5072795;28;20051;-74
2024/04/11 05:56:31;;;;;;;16.13;8.20;;;;;;;18.29;73.51;101529.81;5072707;28;20494;-75
2024/04/11 05:59:36;;;;;;;8.07;5.22;;;;;;;18.46;73.37;101530.78;5072284;28;20154;-74
2024/04/11 06:02:41;;;;;;;6.55;2.88;;;;;;;18.33;73.96;101542.06;5072600;28;20056;-74
2024/04/11 06:05:46;;;;;;;7.28;2.55;;;;;;;18.37;73.59;101546.16;5072704;28;20054;-74
2024/04/11 06:09:08;;;;;;;4.93;2.38;;;;;;;18.09;74.23;101558.13;5058070;28;20053;-73
2024/04/11 06:12:12;;;;;;;7.47;2.50;;;;;;;18.45;73.27;101556.25;5060367;28;20078;-75
2024/04/11 06:15:19;;;;;;;4.82;3.53;;;;;;;18.66;72.48;101557.69;5072330;28;20060;-75
2024/04/11 06:18:28;;;;;;;4.10;2.38;;;;;;;18.95;71.57;101565.56;5060270;28;20052;-75
2024/04/11 06:21:36;;;;;;;4.68;2.70;;;;;;;19.54;70.03;101567.47;5072251;28;20047;-75
2024/04/11 06:24:40;;;;;;;5.55;2.50;;;;;;;19.53;70.23;101568.47;5072242;28;20069;-73
2024/04/11 06:27:45;;;;;;;4.97;2.78;;;;;;;19.38;70.01;101567.41;5072719;28;20494;-75
2024/04/11 06:30:54;;;;;;;5.68;2.80;;;;;;;19.30;70.69;101567.31;5076114;28;20047;-74
2024/04/11 06:34:00;;;;;;;5.95;2.30;;;;;;;19.29;70.19;101571.91;5076136;28;20486;-74
2024/04/11 06:37:05;;;;;;;5.53;2.67;;;;;;;19.68;69.73;101565.97;5075981;28;20493;-74
2024/04/11 06:40:14;;;;;;;4.43;2.17;;;;;;;19.60;69.33;101572.28;5076024;28;20111;-73
2024/04/11 06:43:20;;;;;;;4.60;2.28;;;;;;;19.67;68.53;101572.47;5075867;28;20055;-75
2024/04/11 06:46:44;;;;;;;3.97;1.90;;;;;;;20.01;67.57;101570.56;5075777;28;20055;-75
2024/04/11 06:49:49;;;;;;;3.67;1.65;;;;;;;20.13;66.17;101582.84;5075867;28;20115;-74
2024/04/11 06:52:55;;;;;;;4.93;1.55;;;;;;;20.08;65.19;101586.06;5075488;28;20059;-74
2024/04/11 06:56:00;;;;;;;2.97;1.38;;;;;;;19.97;63.77;101600.00;5051742;28;20048;-74
2024/04/11 06:59:10;;;;;;;2.85;1.20;;;;;;;19.84;64.42;101599.63;5075322;28;20043;-75
2024/04/11 07:02:15;;;;;;;3.47;1.23;;;;;;;19.97;64.15;101605.44;5063057;28;20043;-75
2024/04/11 07:05:23;;;;;;;2.40;1.13;;;;;;;20.35;64.07;101604.06;5075158;28;20075;-75
2024/04/11 07:08:31;;;;;;;3.50;1.30;;;;;;;20.42;62.47;101610.56;5062826;28;20039;-75
2024/04/11 07:11:40;;;;;;;2.83;1.40;;;;;;;20.37;62.20;101609.38;5075170;28;20126;-73
2024/04/11 07:14:44;;;;;;;3.22;1.38;;;;;;;20.52;61.51;101616.72;5075274;28;20051;-75
2024/04/11 07:17:59;;;;;;;2.90;1.10;;;;;;;20.82;60.06;101620.66;5063212;28;20052;-73
2024/04/11 07:21:07;;;;;;;4.25;1.65;;;;;;;21.40;57.68;101624.03;5075312;28;20047;-74
2024/04/11 07:24:13;;;;;;;3.08;1.40;;;;;;;22.06;54.92;101630.19;5075095;28;20071;-74
2024/04/11 07:27:18;;;;;;;6.32;1.70;;;;;;;23.64;50.31;101618.34;5075025;28;20143;-74
2024/04/11 07:30:25;;;;;;;5.03;1.48;;;;;;;25.87;45.07;101627.03;5075218;28;20051;-75
2024/04/11 07:33:30;;;;;;;3.05;1.38;;;;;;;28.22;38.90;101628.34;5075354;28;20055;-75
2024/04/11 07:36:39;;;;;;;1.83;0.90;;;;;;;30.28;34.93;101631.72;5032966;28;20057;-75
2024/04/11 07:39:45;;;;;;;5.60;1.80;;;;;;;32.01;31.92;101635.97;5031967;28;20045;-75
2024/04/11 07:42:55;;;;;;;4.55;1.13;;;;;;;33.03;30.60;101623.03;5032376;28;20435;-74
2024/04/11 07:46:03;;;;;;;3.50;1.58;;;;;;;34.59;28.61;101642.88;5032822;28;20465;-75
2024/04/11 07:49:08;;;;;;;2.15;1.00;;;;;;;35.34;26.39;101641.09;5032800;28;20145;-74
2024/04/11 07:52:13;;;;;;;3.47;1.15;;;;;;;36.10;26.24;101645.31;5032810;28;20559;-74
2024/04/11 07:55:18;;;;;;;2.15;0.95;;;;;;;36.26;25.21;101649.84;5032713;28;20180;-75
2024/04/11 07:58:23;;;;;;;2.70;1.08;;;;;;;36.51;25.00;101648.00;5032452;28;20125;-75
2024/04/11 08:01:31;;;;;;;2.83;1.17;;;;;;;37.00;25.01;101651.22;5032552;28;20053;-75
2024/04/11 08:04:36;;;;;;;3.75;1.20;;;;;;;37.89;23.47;101656.22;5032131;28;20072;-75
2024/04/11 08:07:42;;;;;;;2.63;1.20;;;;;;;38.03;23.61;101651.69;5049205;28;20060;-75
2024/04/11 08:10:48;;;;;;;2.40;1.15;;;;;;;37.85;24.28;101665.50;5054376;28;20052;-75
2024/04/11 08:13:53;;;;;;;2.90;1.10;;;;;;;38.35;23.46;101657.75;5053206;28;20056;-75
2024/04/11 08:16:58;;;;;;;2.30;1.27;;;;;;;37.38;24.25;101654.56;5053333;28;20056;-75
2024/04/11 08:20:12;;;;;;;4.38;1.60;;;;;;;37.08;24.41;101663.81;5054007;28;20055;-75
2024/04/11 08:23:20;;;;;;;3.15;1.20;;;;;;;37.43;24.65;101663.81;5053914;28;20056;-76
2024/04/11 08:26:24;;;;;;;2.00;1.05;;;;;;;38.42;23.18;101675.13;5053357;28;20044;-75
2024/04/11 08:29:29;;;;;;;3.05;1.15;;;;;;;39.03;22.83;101674.78;5053868;28;20508;-75
2024/04/11 08:32:45;;;;;;;2.22;1.10;;;;;;;38.61;23.38;101683.75;5054137;28;20064;-76
2024/04/11 08:35:53;;;;;;;2.70;1.30;;;;;;;38.85;22.68;101681.09;5053096;28;20055;-76
2024/04/11 08:38:58;;;;;;;2.50;1.10;;;;;;;39.01;22.55;101691.09;5054007;28;20052;-76
2024/04/11 08:42:03;;;;;;;2.85;1.10;;;;;;;39.02;23.10;101690.81;5053939;28;20051;-76
2024/04/11 08:45:09;;;;;;;2.90;1.40;;;;;;;38.83;22.75;101684.19;5053658;28;20048;-75
2024/04/11 08:48:14;;;;;;;2.95;1.30;;;;;;;37.72;23.74;101684.56;5053648;28;20067;-75
2024/04/11 08:51:20;;;;;;;3.20;1.48;;;;;;;38.56;23.28;101695.00;5052339;28;20056;-75
2024/04/11 08:54:27;;;;;;;5.88;1.83;;;;;;;38.16;24.24;101692.31;5053607;28;20392;-76
2024/04/11 08:57:32;;;;;;;3.10;1.40;;;;;;;37.02;24.68;101690.13;5053614;28;20063;-76
2024/04/11 09:00:41;;;;;;;2.40;1.23;;;;;;;34.89;26.80;101694.56;5071493;28;20071;-76
2024/04/11 09:03:48;;;;;;;2.95;1.35;;;;;;;33.43;28.59;101690.50;5073447;28;20047;-75
2024/04/11 09:06:54;;;;;;;3.38;1.58;;;;;;;32.01;30.69;101683.19;5073457;28;20052;-74
2024/04/11 09:10:04;;;;;;;5.10;1.67;;;;;;;30.96;31.96;101686.91;5073387;28;20056;-74
2024/04/11 09:13:15;;;;;;;3.03;1.48;;;;;;;29.96;33.29;101680.88;5060992;28;20391;-74
2024/04/11 09:16:26;;;;;;;3.25;1.35;;;;;;;29.35;35.41;101686.38;5072793;28;20047;-74
2024/04/11 09:19:39;;;;;;;4.70;1.52;;;;;;;28.95;35.59;101688.53;5073051;28;20052;-73
2024/04/11 09:22:48;;;;;;;3.88;1.73;;;;;;;28.49;36.50;101687.06;5060775;28;20098;-75
2024/04/11 09:25:55;;;;;;;4.30;1.60;;;;;;;28.38;36.94;101685.84;5073031;28;20127;-74
2024/04/11 09:29:00;;;;;;;3.88;1.88;;;;;;;27.81;37.86;101688.50;5072836;28;20052;-75
2024/04/11 09:32:06;;;;;;;4.15;1.60;;;;;;;27.46;38.92;101691.53;5073179;28;20055;-73
2024/04/11 09:35:12;;;;;;;4.82;2.05;;;;;;;26.96;40.29;101694.88;5072900;28;20063;-74
2024/04/11 09:38:19;;;;;;;3.38;1.70;;;;;;;27.05;39.29;101688.94;5072853;28;20055;-74
2024/04/11 09:41:26;;;;;;;4.88;1.48;;;;;;;26.63;40.98;101688.38;5072841;28;20063;-74
2024/04/11 09:44:31;;;;;;;4.03;1.75;;;;;;;26.17;40.09;101688.19;5072602;28;20383;-73
2024/04/11 09:47:44;;;;;;;3.17;1.60;;;;;;;26.27;40.60;101692.25;5072823;28;20067;-75
2024/04/11 09:50:51;;;;;;;5.28;1.75;;;;;;;26.01;42.33;101694.84;5072635;28;20051;-74
2024/04/11 09:54:00;;;;;;;5.03;1.60;;;;;;;25.74;41.95;101693.84;5072657;28;20075;-74
2024/04/11 09:57:06;;;;;;;3.45;1.65;;;;;;;25.71;39.58;101696.97;5072745;28;20048;-74
2024/04/11 10:01:04;;;;;;;6.93;1.58;;;;;;;25.33;39.96;101695.56;5072008;28;20052;-74
2024/04/11 10:03:40;;;;;;;3.53;1.38;;;;;;;25.28;38.08;101691.75;5068707;28;20059;-75
2024/04/11 10:06:44;;;;;;;4.13;1.40;;;;;;;25.17;37.54;101684.88;5076248;28;20051;-75
2024/04/11 10:09:49;;;;;;;2.97;1.20;;;;;;;25.22;37.81;101685.13;5076318;28;20052;-74
2024/04/11 10:13:00;;;;;;;2.88;1.30;;;;;;;25.23;38.50;101689.59;5076333;28;20407;-75
2024/04/11 10:16:21;;;;;;;3.85;1.35;;;;;;;25.15;38.29;101687.81;5076159;28;20051;-74
2024/04/11 10:19:28;;;;;;;4.28;1.65;;;;;;;24.91;38.48;101685.44;5063590;28;20052;-75
2024/04/11 10:22:32;;;;;;;4.72;1.50;;;;;;;24.69;38.85;101691.13;5076138;28;20512;-75
2024/04/11 10:25:38;;;;;;;6.13;1.80;;;;;;;24.56;39.63;101687.16;5075755;28;20056;-74
2024/04/11 10:28:46;;;;;;;4.22;1.70;;;;;;;24.49;38.84;101693.63;5075947;28;20072;-74
2024/04/11 10:31:56;;;;;;;4.22;1.25;;;;;;;24.38;38.09;101686.72;5063540;28;20052;-73
2024/04/11 10:35:04;;;;;;;2.78;1.05;;;;;;;24.23;38.22;101694.13;5075880;28;20044;-73
2024/04/11 10:38:12;;;;;;;3.53;1.55;;;;;;;24.08;38.99;101689.69;5076133;28;20047;-74
2024/04/11 10:41:19;;;;;;;3.95;1.50;;;;;;;24.52;38.74;101684.97;5075691;28;20051;-74
2024/04/11 10:44:24;;;;;;;3.10;1.13;;;;;;;24.17;38.81;101691.31;5063126;28;20055;-74
2024/04/11 10:47:35;;;;;;;3.35;1.40;;;;;;;24.04;40.21;101691.09;5063172;28;20048;-75
2024/04/11 10:50:42;;;;;;;4.65;1.20;;;;;;;24.00;40.83;101687.03;5075659;28;20059;-74
2024/04/11 10:53:54;;;;;;;4.72;1.63;;;;;;;23.93;40.05;101685.03;5051505;28;20046;-75
2024/04/11 10:57:00;;;;;;;3.17;1.30;;;;;;;23.88;42.06;101672.91;5075477;28;20056;-76
2024/04/11 11:00:10;;;;;;;3.83;1.27;;;;;;;23.73;40.69;101683.88;5075228;28;20052;-75
2024/04/11 11:03:14;;;;;;;3.25;1.50;;;;;;;23.87;41.66;101674.81;5075386;28;20055;-76
2024/04/11 11:06:25;;;;;;;5.00;1.60;;;;;;;23.67;39.91;101676.44;5063142;28;20052;-75
2024/04/11 11:09:30;;;;;;;4.47;1.48;;;;;;;23.64;40.38;101675.94;5075167;28;20055;-75
2024/04/11 11:12:35;;;;;;;4.75;1.63;;;;;;;23.59;40.51;101670.16;5075310;28;20498;-75
2024/04/11 11:15:40;;;;;;;5.15;2.13;;;;;;;23.42;41.65;101669.47;5075203;28;20119;-74
2024/04/11 11:18:45;;;;;;;4.63;2.13;;;;;;;23.19;42.39;101669.47;5075218;28;20482;-74
2024/04/11 11:21:51;;;;;;;5.65;2.10;;;;;;;23.03;42.21;101677.00;5075045;28;20056;-75
2024/04/11 11:25:00;;;;;;;8.32;2.20;;;;;;;23.03;42.38;101674.25;5074713;28;20055;-74
2024/04/11 11:28:12;;;;;;;3.95;1.77;;;;;;;22.95;42.26;101669.69;5075044;28;20051;-74
2024/04/11 11:31:20;;;;;;;3.10;1.80;;;;;;;22.85;42.43;101658.13;5074969;28;20391;-74
2024/04/11 11:34:30;;;;;;;4.40;2.05;;;;;;;22.89;43.74;101659.44;5074771;28;20059;-75
2024/04/11 11:37:35;;;;;;;4.10;2.17;;;;;;;22.74;43.63;101657.72;5074672;28;20376;-75
2024/04/11 11:40:40;;;;;;;6.07;1.92;;;;;;;22.64;43.86;101658.78;5062295;28;20110;-74
2024/04/11 11:43:44;;;;;;;5.45;2.55;;;;;;;22.63;44.36;101661.72;5074385;28;20383;-75
2024/04/11 11:46:49;;;;;;;5.95;2.13;;;;;;;22.67;44.05;101658.41;5074553;28;20040;-73
2024/04/11 11:49:53;;;;;;;3.83;2.03;;;;;;;22.73;44.10;101653.25;5050557;28;20044;-74
2024/04/11 11:53:13;;;;;;;3.78;1.90;;;;;;;22.80;43.96;101651.47;5074348;28;20382;-74
2024/04/11 11:56:22;;;;;;;3.50;1.90;;;;;;;22.92;44.60;101639.94;5073894;28;20497;-76
2024/04/11 11:59:30;;;;;;;6.93;2.08;;;;;;;22.84;44.91;101633.69;5061510;28;20048;-74
2024/04/11 12:02:35;;;;;;;4.82;1.63;;;;;;;23.11;45.04;101641.28;5074077;28;20063;-74
2024/04/11 12:05:40;;;;;;;6.15;2.40;;;;;;;23.18;45.39;101639.53;5073945;28;20056;-74
2024/04/11 12:08:45;;;;;;;4.82;2.10;;;;;;;23.25;45.22;101643.25;5074032;28;20363;-73
2024/04/11 12:11:53;;;;;;;6.68;2.78;;;;;;;23.17;44.00;101638.69;5074193;28;20068;-75
2024/04/11 12:15:04;;;;;;;6.50;2.20;;;;;;;22.92;45.27;101645.41;5074228;28;20411;-75
2024/04/11 12:18:11;;;;;;;5.03;2.03;;;;;;;22.86;46.71;101639.81;5073703;28;20048;-74
2024/04/11 12:21:25;;;;;;;6.75;2.00;;;;;;;22.88;47.00;101643.22;5061455;28;20044;-74
2024/04/11 12:24:31;;;;;;;9.52;2.30;;;;;;;23.30;46.59;101638.06;5061216;28;20048;-74
2024/04/11 12:27:39;;;;;;;3.90;1.92;;;;;;;23.52;44.80;101639.06;5073075;28;20118;-74
2024/04/11 12:30:43;;;;;;;5.05;2.38;;;;;;;23.57;46.12;101628.38;5073548;28;20343;-75
2024/04/11 12:33:48;;;;;;;4.18;2.60;;;;;;;23.61;44.76;101626.94;5073631;28;20040;-75
2024/04/11 12:36:58;;;;;;;4.50;2.30;;;;;;;23.44;45.00;101629.03;5061297;28;20059;-75
2024/04/11 12:40:06;;;;;;;4.13;2.30;;;;;;;23.43;45.10;101618.25;5073613;28;20055;-75
2024/04/11 12:43:10;;;;;;;4.35;2.50;;;;;;;23.46;45.13;101621.47;5073498;28;20055;-73
2024/04/11 12:46:16;;;;;;;5.18;2.00;;;;;;;23.45;46.03;101610.69;5061111;28;20048;-75
2024/04/11 12:49:25;;;;;;;5.03;2.42;;;;;;;23.67;45.71;101613.34;5061111;28;20056;-74
2024/04/11 12:52:40;;;;;;;5.20;1.90;;;;;;;23.74;45.91;101606.06;5073323;28;20088;-76
2024/04/11 12:55:52;;;;;;;7.45;3.15;;;;;;;23.53;44.48;101594.16;5073293;28;20395;-75
2024/04/11 12:59:05;;;;;;;5.63;2.40;;;;;;;23.38;45.08;101591.41;5072946;28;20056;-75
2024/04/11 13:02:10;;;;;;;2.90;1.60;;;;;;;23.39;45.30;101598.59;5071320;28;20055;-75
2024/04/11 13:05:15;;;;;;;4.50;2.47;;;;;;;23.57;44.76;101585.38;5073342;28;20044;-76
2024/04/11 13:08:23;;;;;;;5.45;2.40;;;;;;;23.68;44.86;101587.63;5073189;28;20052;-74
2024/04/11 13:11:36;;;;;;;5.45;2.25;;;;;;;23.74;45.30;101586.88;5073183;28;20064;-75
2024/04/11 13:14:55;;;;;;;7.43;2.28;;;;;;;23.99;45.24;101592.03;5073029;28;20052;-74
2024/04/11 13:18:01;;;;;;;4.07;2.15;;;;;;;24.19;45.75;101583.06;5060894;28;20044;-75
2024/04/11 13:21:15;;;;;;;5.07;2.63;;;;;;;24.31;45.44;101584.25;5073093;28;20051;-75
2024/04/11 13:24:24;;;;;;;4.03;2.38;;;;;;;24.37;46.11;101582.59;5060638;28;20363;-75
2024/04/11 13:27:40;;;;;;;4.38;2.70;;;;;;;24.46;44.88;101584.19;5060569;28;20455;-75
2024/04/11 13:30:46;;;;;;;5.20;1.98;;;;;;;24.59;44.83;101582.41;5073197;28;20509;-75
2024/04/11 13:33:52;;;;;;;6.07;2.60;;;;;;;24.50;44.88;101575.38;5072796;28;20059;-75
2024/04/11 13:37:02;;;;;;;5.30;2.70;;;;;;;24.52;44.72;101569.66;5072824;28;20059;-74
2024/04/11 13:43:30;;;;;;;4.18;2.38;;;;;;;24.65;44.97;101564.31;5077175;28;20051;-73
2024/04/11 13:46:35;;;;;;;5.20;2.70;;;;;;;24.75;44.51;101556.59;5076827;28;20100;-74
2024/04/11 13:49:57;;;;;;;4.38;2.70;;;;;;;24.75;44.85;101570.31;5076691;28;20497;-74
2024/04/11 13:53:06;;;;;;;9.40;2.97;;;;;;;24.75;44.51;101556.59;5076778;28;20051;-73
2024/04/11 13:56:14;;;;;;;5.20;3.00;;;;;;;24.68;44.51;101566.66;5076782;28;20162;-74
2024/04/11 13:59:18;;;;;;;4.90;2.75;;;;;;;24.60;45.11;101561.31;5076135;28;20134;-74
2024/04/11 14:02:46;;;;;;;8.57;3.30;;;;;;;24.37;45.03;101571.63;5064360;28;20052;-75
2024/04/11 14:09:18;;;;;;;4.63;2.78;;;;;;;24.13;45.60;101561.00;5076280;28;20043;-76
2024/04/11 14:12:24;;;;;;;4.65;2.70;;;;;;;24.02;46.51;101561.50;5076496;28;20039;-75
2024/04/11 14:15:31;;;;;;;4.32;2.60;;;;;;;23.91;46.32;101566.44;5076532;28;20052;-75
2024/04/11 14:18:39;;;;;;;9.93;2.60;;;;;;;23.88;45.88;101558.56;5076414;28;20052;-75
2024/04/11 14:21:53;;;;;;;8.05;3.33;;;;;;;23.86;46.68;101557.91;5076454;28;20048;-75
2024/04/11 14:25:03;;;;;;;5.50;2.58;;;;;;;23.91;47.12;101560.09;5075750;28;20067;-74
2024/04/11 14:28:15;;;;;;;6.07;3.22;;;;;;;23.98;46.72;101555.53;5075626;28;20395;-74
2024/04/11 14:31:30;;;;;;;5.85;2.70;;;;;;;23.92;46.98;101548.91;5075795;28;20055;-74
2024/04/11 14:38:07;;;;;;;5.07;2.70;;;;;;;23.95;47.89;101548.53;5075866;28;20047;-74